Address 0x6fdd1157d3b440eeefea89c8a7e7ff662d05743e 2

Overview

Balance:
2.110427925289088712 GLMR

Reserved:
685 GLMR

GLMR Value:
$311.60 (@ $0.45/GLMR)

Token:
Txn Hash Method
Block
From
To
Value [Txn Fee]
0x11db5713839ce3e7d7142d75a556f863592fa1a7c63343efc02a3fbcd268378bTransfer*19921452022-10-02 12:29:541 day 1 hr ago0x6fdd1157d3b440eeefea89c8a7e7ff662d05743eOUTMoonbeam Staking Delegations0 GLMR0.0056132545
0x65bf75ced751685e619428022fccb3fa8f286ffcc5d9662903a289dafa89f508Transfer19920942022-10-02 12:19:361 day 1 hr agoBinance 1 IN 0x6fdd1157d3b440eeefea89c8a7e7ff662d05743e106.5833 GLMR0.0042
0xdd5cf10caae82fdadc5b6a15cb158f1f3a62d56ffca5a5c00980ca3e772f61d3Transfer*16293652022-08-11 11:02:4253 days 3 hrs ago0x6fdd1157d3b440eeefea89c8a7e7ff662d05743eOUTMoonbeam Staking Delegations0 GLMR0.0056120365
0xe18435eefc7cc8d652d052e6806a56db3c46093ddc3af3c8e6e241e35cabc5d8Swap Exact Token...16293362022-08-11 10:56:4853 days 3 hrs ago0x6fdd1157d3b440eeefea89c8a7e7ff662d05743eOUT StellaSwap: Router v2.10 GLMR0.0128388365
0xd0044fafd397b6374e4742c248bf78934e9ef43f7711c41cc8837dde38e33dfbTransfer*16293122022-08-11 10:52:0053 days 3 hrs ago0x6fdd1157d3b440eeefea89c8a7e7ff662d05743eOUTMoonbeam: xcaUSD Token0 GLMR0.003648925
0xa58913a911af66c32a690e6c99de472f01fa70bed0aa36c571c597402f7a3973Swap Exact Token...16292892022-08-11 10:47:1853 days 3 hrs ago0x6fdd1157d3b440eeefea89c8a7e7ff662d05743eOUT 0xeb237cf62eda6a179561952840f17a7056d647f60 GLMR0.012340266
0x03429a38356421f75f2b821b8054397313ef7c3d30aae049f73089a30fd5c487Approve16292792022-08-11 10:45:1253 days 3 hrs ago0x6fdd1157d3b440eeefea89c8a7e7ff662d05743eOUT Zenlink Network: ZLK Token0 GLMR0.004723824
0x5c07bf74cbb8cfa48bc268843d6864ac915c4e98c91a82d3c9b7c0635ecc018cSwap Exact Token...16292732022-08-11 10:44:0053 days 3 hrs ago0x6fdd1157d3b440eeefea89c8a7e7ff662d05743eOUT StellaSwap: Router v2.10 GLMR0.0117341105
0x65a5feaa43fd0b5780679ca40413d5248dee48158906d109b3effe3dd670ad11Redeem16292672022-08-11 10:42:4853 days 3 hrs ago0x6fdd1157d3b440eeefea89c8a7e7ff662d05743eOUT 0xa226877393fc4e3b5f2b43a1bae3c5d72c918c2d0 GLMR0.010740906
0xb53c9fddee7ce4a3b95cee32a2c94aff63d779ebd6940d2a892d91eeebc9fbd1Leave16292642022-08-11 10:42:1253 days 3 hrs ago0x6fdd1157d3b440eeefea89c8a7e7ff662d05743eOUT StellaSwap: xStella Token0 GLMR0.0052638915
0x7379a304ee3f11b4ef5da7747343437ff61ccd83598ef2c2eb1b7002042c55c6Unlock16292582022-08-11 10:41:0053 days 3 hrs ago0x6fdd1157d3b440eeefea89c8a7e7ff662d05743eOUT 0x4b1381b5b959a8ba7f44414c7d758e53d500a8a90 GLMR0.006947472
0x028c9e1d1c3a259cab02dae43600db11925bbb6ce1075b04ed1055b0529f618fSwap Exact Token...16291622022-08-11 10:21:0053 days 3 hrs ago0x6fdd1157d3b440eeefea89c8a7e7ff662d05743eOUT StellaSwap: Router v2.10 GLMR0.015253217
0xc4e5f5caafd7a36b97eb14245782d48be34ff0c083f30f2c8db76c6c11e828b3Approve16291492022-08-11 10:18:1253 days 3 hrs ago0x6fdd1157d3b440eeefea89c8a7e7ff662d05743eOUT StellaSwap: STELLA Token0 GLMR0.0047969915
0x07e3a8914fe4d0b7fc969fdd44a64f4ba6b0f45b6f3580a2349018be50f0f1adLeave16291362022-08-11 10:15:3653 days 3 hrs ago0x6fdd1157d3b440eeefea89c8a7e7ff662d05743eOUT StellaSwap: xStella Token0 GLMR0.0052638915
0xca7fc62c657c1df59b9a4b7ed06ea785f162a1d85245d065bfee287b8c9e7b40Approve16291232022-08-11 10:12:4853 days 4 hrs ago0x6fdd1157d3b440eeefea89c8a7e7ff662d05743eOUT StellaSwap: xStella Token0 GLMR0.004792424
0x625eaa5059d6324d41061bf91d16df30bcd861518a97f750e28a0b24ed4ca9f2Swap Exact ETH F...16291172022-08-11 10:11:2453 days 4 hrs ago0x6fdd1157d3b440eeefea89c8a7e7ff662d05743eOUT StellaSwap: Router v2.120 GLMR0.0116835635
0x73d1d9cd4d0a1589d321b8aaabece93102606be8f741a037b2c56daa8b1424d5Swap Exact Token...16291132022-08-11 10:10:3653 days 4 hrs ago0x6fdd1157d3b440eeefea89c8a7e7ff662d05743eOUT StellaSwap: Router v2.10 GLMR0.0158205005
0x059a143e99f1d713e14f733cc347e42ee18f5692cf281e1bf38a413883189570Approve16291082022-08-11 10:09:3653 days 4 hrs ago0x6fdd1157d3b440eeefea89c8a7e7ff662d05743eOUT Nomad: madUSDC Token0 GLMR0.005509623
0xf023aa47d1300a2e291e498715ad1f2a39ae5e419011c2b09740e7fa913fd928Swap Exact Token...16289472022-08-11 9:35:4853 days 4 hrs ago0x6fdd1157d3b440eeefea89c8a7e7ff662d05743eOUT StellaSwap: Router v2.10 GLMR0.0145048575
0xfb74fd9eec68eb5a2218be07d6f68ddc353d01c9a7721942a74a5facfb663a41Approve16289432022-08-11 9:35:0053 days 4 hrs ago0x6fdd1157d3b440eeefea89c8a7e7ff662d05743eOUT Multichain: USDC Token0 GLMR0.0047310165
0x60eae404edd32b6d64a6925221b7fc0957196d11761ac3479e408eec0d8b5c49Swap Exact ETH F...16289412022-08-11 9:34:3653 days 4 hrs ago0x6fdd1157d3b440eeefea89c8a7e7ff662d05743eOUT StellaSwap: Router v2.130 GLMR0.011229351
0x08876114fceef5059a292b04ff5f3542c71b558347ac6a2e4e1e2e64c6249a6eSwap Exact ETH F...16289322022-08-11 9:32:3653 days 4 hrs ago0x6fdd1157d3b440eeefea89c8a7e7ff662d05743eOUT StellaSwap: Router v2.10.7 GLMR0.012844216
0x9f68ffccfcfdb24010da3a173a98536ea9f1478ab2d05b0b50ddcfb7b20a5ef5Approve16288672022-08-11 9:19:2453 days 4 hrs ago0x6fdd1157d3b440eeefea89c8a7e7ff662d05743eOUT Nomad: madUSDC Token0 GLMR0.005509623
0xcd8791907da3737e9436dc49f8b8543b45130e0ff36d4cc94cd31b86dc535831Swap Exact ETH F...16288602022-08-11 9:18:0053 days 4 hrs ago0x6fdd1157d3b440eeefea89c8a7e7ff662d05743eOUT StellaSwap: Router v2.11 GLMR0.012153813
0x4961f3ada5acedc6b32ed6b3a31c18239dc5e9fe5ba80999a1052bb7c5f22448Lock16288442022-08-11 9:14:3653 days 4 hrs ago0x6fdd1157d3b440eeefea89c8a7e7ff662d05743eOUT 0x4b1381b5b959a8ba7f44414c7d758e53d500a8a90 GLMR0.009100287
[ Download CSV Export 
Latest 7 internal transactions
Parent Txn Hash Block From To Value
0xe18435eefc7cc8d652d052e6806a56db3c46093ddc3af3c8e6e241e35cabc5d816293362022-08-11 10:56:4853 days 3 hrs ago StellaSwap: Router v2.10x6fdd1157d3b440eeefea89c8a7e7ff662d05743e55.851625768394634419 GLMR
0xa58913a911af66c32a690e6c99de472f01fa70bed0aa36c571c597402f7a397316292892022-08-11 10:47:1853 days 3 hrs ago 0xeb237cf62eda6a179561952840f17a7056d647f60x6fdd1157d3b440eeefea89c8a7e7ff662d05743e61.8364819576761066 GLMR
0x5c07bf74cbb8cfa48bc268843d6864ac915c4e98c91a82d3c9b7c0635ecc018c16292732022-08-11 10:44:0053 days 3 hrs ago StellaSwap: Router v2.10x6fdd1157d3b440eeefea89c8a7e7ff662d05743e12.728691843476078377 GLMR
0x44fba1808679374fa5790877402731e5d5362645db214e8786af6b69bd82d54312419382022-06-15 11:03:06110 days 3 hrs ago StellaSwap: Router v2.10x6fdd1157d3b440eeefea89c8a7e7ff662d05743e253.043472685958886038 GLMR
0x801c73a007bac65b4ec49028635f5e971a3d2b59c4dc73a3daa8a6cf5045dfed12419232022-06-15 10:59:36110 days 3 hrs ago 0xb7c18df30663da7c749181d5f8690dca4dafbf440x6fdd1157d3b440eeefea89c8a7e7ff662d05743e0.005306959829900481 GLMR
0x3f217a5dc880a9e800d8e6192ceca1537a8b7b97ffb807dff8fb9d838ca8d0db12418932022-06-15 10:52:54110 days 3 hrs ago 0xb7c18df30663da7c749181d5f8690dca4dafbf440x6fdd1157d3b440eeefea89c8a7e7ff662d05743e2.614681742406767671 GLMR
0x6f69e7a15b6f09bcc445c539508ea49319b204bc47a49dee236c7dc916325e9912345042022-06-14 8:09:42111 days 6 hrs ago 0xb7c18df30663da7c749181d5f8690dca4dafbf440x6fdd1157d3b440eeefea89c8a7e7ff662d05743e0.005161051621462529 GLMR
[ Download CSV Export 
Loading

Contract Name:
0

Compiler Version
0

Optimization Enabled:
0

Other Settings:
-NA-
Block Transaction Gas Used Reward
Age Block Fee Address BC Fee Address Voting Power Jailed Incoming
Block Uncle Number Difficulty Gas Used Reward
Loading
Make sure to use the "Vote Down" button for any spammy posts, and the "Vote Up" for interesting conversations.